Time;durP1;ratioP1;P1;durP2;ratioP2;P2;SDS_P1;SDS_P2;PMS_P1;PMS_P2;Temp;Humidity;BMP_temperature;BMP_pressure;BME280_temperature;BME280_humidity;BME280_pressure;Samples;Min_cycle;Max_cycle;Signal;HPM_P1;HPM_P2
2022/06/14 00:01:34;;;;;;;5.18;3.38;;;10.50;99.90;;;;;;4979477;28;89822;-35
2022/06/14 00:04:00;;;;;;;6.60;4.10;;;10.50;99.90;;;;;;4979128;28;89722;-33
2022/06/14 00:06:29;;;;;;;9.50;4.95;;;10.50;99.90;;;;;;4978091;28;90832;-37
2022/06/14 00:08:55;;;;;;;10.68;4.43;;;10.40;99.90;;;;;;4978924;28;89028;-33
2022/06/14 00:11:25;;;;;;;10.02;4.78;;;10.40;99.90;;;;;;4979483;28;90848;-36
2022/06/14 00:13:53;;;;;;;17.52;4.88;;;10.40;99.90;;;;;;4979030;28;89818;-33
2022/06/14 00:16:20;;;;;;;5.73;3.90;;;10.30;99.90;;;;;;4979560;28;89772;-35
2022/06/14 00:18:45;;;;;;;9.40;4.00;;;10.30;99.90;;;;;;4979248;28;88898;-36
2022/06/14 00:21:12;;;;;;;7.55;3.90;;;10.30;99.90;;;;;;4978977;28;89911;-36
2022/06/14 00:23:38;;;;;;;6.85;4.10;;;10.30;99.90;;;;;;4978614;28;90111;-36
2022/06/14 00:26:04;;;;;;;8.20;4.05;;;10.30;99.90;;;;;;4978341;28;90452;-34
2022/06/14 00:28:33;;;;;;;11.05;3.88;;;10.30;99.90;;;;;;4979697;28;89972;-33
2022/06/14 00:31:02;;;;;;;6.00;4.07;;;10.30;99.90;;;;;;4979080;28;89907;-36
2022/06/14 00:33:28;;;;;;;7.32;4.63;;;10.20;99.90;;;;;;4979543;28;89591;-34
2022/06/14 00:36:05;;;;;;;8.40;4.45;;;10.20;99.90;;;;;;4978246;28;89437;-36
2022/06/14 00:38:33;;;;;;;14.60;4.93;;;10.20;99.90;;;;;;4978665;28;89268;-34
2022/06/14 00:41:00;;;;;;;9.23;4.27;;;10.20;99.90;;;;;;4978464;28;90275;-38
2022/06/14 00:43:29;;;;;;;5.53;3.47;;;10.20;99.90;;;;;;4979419;28;89960;-36
2022/06/14 00:46:28;;;;;;;5.32;3.78;;;10.20;99.90;;;;;;4979162;28;89518;-34
2022/06/14 00:49:01;;;;;;;4.88;4.18;;;10.20;99.90;;;;;;4963810;28;90195;-36
2022/06/14 00:51:32;;;;;;;10.30;4.07;;;10.10;99.90;;;;;;4978496;28;90835;-34
2022/06/14 00:54:07;;;;;;;5.70;3.83;;;10.00;99.90;;;;;;4978488;28;89789;-33
2022/06/14 00:56:58;;;;;;;8.70;4.10;;;10.00;99.90;;;;;;4978616;28;89836;-39
2022/06/14 00:59:33;;;;;;;7.07;4.28;;;9.90;99.90;;;;;;5007409;22;91856;-33
2022/06/14 01:02:13;;;;;;;10.10;5.10;;;9.80;99.90;;;;;;4957282;28;90434;-37
2022/06/14 01:04:42;;;;;;;8.55;4.32;;;9.80;99.90;;;;;;4959006;28;90110;-33
2022/06/14 01:07:16;;;;;;;8.82;3.92;;;9.70;99.90;;;;;;4959158;28;89782;-32
2022/06/14 01:09:50;;;;;;;8.95;3.95;;;9.70;99.90;;;;;;4958053;28;89051;-33
2022/06/14 01:12:23;;;;;;;7.80;4.63;;;9.70;99.90;;;;;;4958931;28;91163;-33
2022/06/14 01:15:01;;;;;;;11.20;4.65;;;9.60;99.90;;;;;;4958001;28;90514;-37
2022/06/14 01:17:28;;;;;;;8.55;4.55;;;9.60;99.90;;;;;;4953712;28;91320;-35
2022/06/14 01:19:54;;;;;;;9.10;5.28;;;9.60;99.90;;;;;;4954157;28;89319;-33
2022/06/14 01:22:20;;;;;;;8.40;3.88;;;9.60;99.90;;;;;;4961342;28;89945;-33
2022/06/14 01:24:46;;;;;;;10.95;5.43;;;9.60;99.90;;;;;;4961519;28;89729;-34
2022/06/14 01:27:16;;;;;;;9.70;4.45;;;9.60;99.90;;;;;;4962279;28;89860;-35
2022/06/14 01:29:46;;;;;;;7.82;4.45;;;9.60;99.90;;;;;;4962457;28;87682;-32
2022/06/14 01:32:14;;;;;;;7.72;5.53;;;9.60;99.90;;;;;;4962379;28;91639;-33
2022/06/14 01:34:45;;;;;;;10.15;6.05;;;9.60;99.90;;;;;;4961534;28;89468;-34
2022/06/14 01:37:11;;;;;;;11.10;4.72;;;9.50;99.90;;;;;;4961395;28;89177;-33
2022/06/14 01:39:37;;;;;;;8.18;5.25;;;9.50;99.90;;;;;;4961376;28;91154;-35
2022/06/14 01:42:15;;;;;;;10.40;4.25;;;9.50;99.90;;;;;;4962151;28;90133;-33
2022/06/14 01:45:02;;;;;;;12.40;5.87;;;9.50;99.90;;;;;;4961494;28;89966;-35
2022/06/14 01:47:48;;;;;;;10.95;4.72;;;9.40;99.90;;;;;;4961556;28;90912;-34
2022/06/14 01:53:35;;;;;;;7.18;5.03;;;9.40;99.90;;;;;;4961481;28;90079;-34
2022/06/14 01:56:10;;;;;;;8.38;4.55;;;9.30;99.90;;;;;;4961301;28;90164;-37
2022/06/14 01:58:51;;;;;;;14.57;4.82;;;9.30;99.90;;;;;;4961400;28;89289;-34
2022/06/14 02:01:26;;;;;;;11.55;4.50;;;9.30;99.90;;;;;;4960904;28;87796;-33
2022/06/14 02:04:38;;;;;;;13.30;4.82;;;9.30;99.90;;;;;;4961453;28;89843;-34
2022/06/14 02:07:28;;;;;;;9.35;4.22;;;9.30;99.90;;;;;;4951260;28;89628;-34
2022/06/14 02:09:57;;;;;;;11.57;5.05;;;9.30;99.90;;;;;;4961482;28;91442;-34
2022/06/14 02:12:35;;;;;;;7.40;4.25;;;9.30;99.90;;;;;;4961880;28;89587;-32
2022/06/14 02:15:23;;;;;;;9.20;5.70;;;9.30;99.90;;;;;;4960875;28;89069;-36
2022/06/14 02:18:13;;;;;;;8.65;5.78;;;9.20;99.90;;;;;;4960710;28;89672;-33
2022/06/14 02:21:02;;;;;;;8.65;5.22;;;9.30;99.90;;;;;;4960995;28;91076;-33
2022/06/14 02:23:35;;;;;;;8.48;5.55;;;9.30;99.90;;;;;;4926722;28;89316;-32
2022/06/14 02:26:05;;;;;;;8.38;6.05;;;9.30;99.90;;;;;;4961052;28;90158;-38
2022/06/14 02:28:41;;;;;;;11.93;6.13;;;9.30;99.90;;;;;;4960371;28;89835;-37
2022/06/14 02:31:18;;;;;;;14.77;5.65;;;9.30;99.90;;;;;;4961086;28;89456;-32
2022/06/14 02:33:55;;;;;;;7.35;5.03;;;9.30;99.90;;;;;;4960827;28;89923;-34
2022/06/14 02:36:28;;;;;;;10.77;6.18;;;9.30;99.90;;;;;;4960805;28;88814;-33
2022/06/14 02:39:02;;;;;;;13.18;6.57;;;9.30;99.90;;;;;;4960712;28;90135;-36
2022/06/14 02:41:35;;;;;;;10.75;5.45;;;9.30;99.90;;;;;;4960399;28;89302;-34
2022/06/14 02:44:09;;;;;;;16.15;6.53;;;9.20;99.90;;;;;;4960708;28;88249;-33
2022/06/14 02:46:48;;;;;;;6.55;5.10;;;9.20;99.90;;;;;;4960976;28;91705;-34
2022/06/14 02:49:40;;;;;;;12.82;5.93;;;9.10;99.90;;;;;;4947513;28;90116;-33
2022/06/14 02:52:23;;;;;;;9.38;6.32;;;9.20;99.90;;;;;;4952531;28;89995;-34
2022/06/14 02:55:17;;;;;;;10.65;5.72;;;9.20;99.90;;;;;;4960960;28;88124;-35
2022/06/14 02:58:11;;;;;;;10.48;5.97;;;9.20;99.90;;;;;;4960350;28;89024;-32
2022/06/14 03:01:04;;;;;;;11.27;6.38;;;9.20;99.90;;;;;;4959496;28;90601;-34
2022/06/14 03:03:44;;;;;;;12.98;5.75;;;9.10;99.90;;;;;;4960327;28;90352;-36
2022/06/14 03:06:35;;;;;;;10.02;6.53;;;9.10;99.90;;;;;;4960292;28;88506;-35
2022/06/14 03:09:17;;;;;;;8.05;5.63;;;9.10;99.90;;;;;;4960557;28;90382;-32
2022/06/14 03:11:54;;;;;;;13.23;6.47;;;9.10;99.90;;;;;;4959949;28;89739;-32
2022/06/14 03:14:31;;;;;;;13.07;6.17;;;9.10;99.90;;;;;;4960310;28;90040;-38
2022/06/14 03:17:05;;;;;;;10.27;6.03;;;9.10;99.90;;;;;;4959918;28;88264;-34
2022/06/14 03:19:49;;;;;;;6.72;5.43;;;9.10;99.90;;;;;;4959888;28;90210;-32
2022/06/14 03:22:47;;;;;;;9.75;5.32;;;9.20;99.90;;;;;;4960456;28;89898;-34
2022/06/14 03:25:40;;;;;;;6.93;5.32;;;9.20;99.90;;;;;;4949272;28;89502;-34
2022/06/14 03:28:13;;;;;;;13.10;5.82;;;9.20;99.90;;;;;;4959163;28;89925;-33
2022/06/14 03:30:58;;;;;;;13.77;6.63;;;9.20;99.90;;;;;;4959949;28;90282;-34
2022/06/14 03:33:35;;;;;;;11.80;6.05;;;9.20;99.90;;;;;;4959914;28;89753;-33
2022/06/14 03:36:02;;;;;;;12.23;6.25;;;9.30;99.90;;;;;;4960093;28;89725;-33
2022/06/14 03:38:40;;;;;;;10.43;4.88;;;9.30;99.90;;;;;;4960255;28;87839;-34
2022/06/14 03:41:06;;;;;;;13.27;7.05;;;9.30;99.90;;;;;;4958926;28;90709;-34
2022/06/14 03:43:35;;;;;;;10.25;5.72;;;9.30;99.90;;;;;;4960074;28;90513;-34
2022/06/14 03:46:12;;;;;;;11.07;5.93;;;9.30;99.90;;;;;;4960129;28;89531;-36
2022/06/14 03:48:42;;;;;;;9.52;5.28;;;9.40;99.90;;;;;;4960124;28;88487;-33
2022/06/14 03:51:24;;;;;;;8.82;5.63;;;9.50;99.90;;;;;;4959432;28;90453;-35
2022/06/14 03:54:01;;;;;;;10.48;5.35;;;9.50;99.90;;;;;;4957517;28;90995;-36
2022/06/14 03:56:48;;;;;;;10.65;5.43;;;9.50;99.90;;;;;;4958832;28;91477;-35
2022/06/14 03:59:16;;;;;;;11.68;5.68;;;9.50;99.90;;;;;;4959452;28;88704;-36
2022/06/14 04:01:58;;;;;;;10.30;5.60;;;9.60;99.90;;;;;;4959504;28;91640;-34
2022/06/14 04:04:43;;;;;;;11.30;6.28;;;9.60;99.90;;;;;;4959245;28;89751;-33
2022/06/14 04:07:31;;;;;;;9.90;6.15;;;9.70;99.90;;;;;;4959624;28;89818;-37
2022/06/14 04:10:08;;;;;;;13.45;7.20;;;9.70;99.90;;;;;;4928386;28;89817;-35
2022/06/14 04:12:40;;;;;;;11.40;6.10;;;9.70;99.90;;;;;;4959650;28;90344;-38
2022/06/14 04:15:29;;;;;;;9.57;5.80;;;9.70;99.90;;;;;;4959586;28;89545;-37
2022/06/14 04:18:34;;;;;;;10.73;5.85;;;9.70;99.90;;;;;;4959287;28;88212;-32
2022/06/14 04:20:54;;;;;;;14.27;5.95;;;9.70;99.90;;;;;;4959145;28;90265;-33
2022/06/14 04:23:50;;;;;;;14.55;5.60;;;9.60;99.90;;;;;;4960095;28;90114;-34
2022/06/14 04:26:32;;;;;;;9.38;5.85;;;9.70;99.90;;;;;;4959566;28;90975;-34
2022/06/14 04:29:08;;;;;;;9.13;5.63;;;9.70;99.90;;;;;;4946915;28;89299;-37
2022/06/14 04:31:59;;;;;;;13.48;5.85;;;9.80;99.90;;;;;;4960403;28;89545;-38
2022/06/14 04:35:00;;;;;;;10.63;5.85;;;9.80;99.90;;;;;;4959209;28;89061;-36
2022/06/14 04:37:33;;;;;;;11.80;5.43;;;9.80;99.90;;;;;;4958780;28;89421;-34
2022/06/14 04:40:09;;;;;;;10.85;5.78;;;9.90;99.90;;;;;;4958875;28;89716;-33
2022/06/14 04:42:54;;;;;;;8.52;4.75;;;9.90;99.90;;;;;;4959298;28;88551;-37
2022/06/14 04:45:43;;;;;;;9.02;5.70;;;9.90;99.90;;;;;;4959550;28;90519;-33
2022/06/14 04:48:24;;;;;;;9.50;5.18;;;10.00;99.90;;;;;;4958175;28;90523;-35
2022/06/14 04:51:09;;;;;;;16.67;6.75;;;10.10;99.90;;;;;;4959427;28;90419;-33
2022/06/14 04:53:49;;;;;;;11.20;6.25;;;10.20;99.90;;;;;;4962127;28;88859;-36
2022/06/14 04:56:23;;;;;;;11.10;6.78;;;10.30;99.90;;;;;;4962884;28;90195;-33
2022/06/14 04:59:03;;;;;;;14.48;6.65;;;10.40;99.90;;;;;;4962015;28;91374;-34
2022/06/14 05:01:41;;;;;;;10.85;7.03;;;10.40;99.90;;;;;;4962418;28;89926;-35
2022/06/14 05:04:20;;;;;;;12.23;6.13;;;10.60;99.90;;;;;;4962398;28;88420;-34
2022/06/14 05:06:55;;;;;;;16.23;6.13;;;10.70;99.90;;;;;;4961952;28;91774;-33
2022/06/14 05:09:29;;;;;;;10.18;5.95;;;10.90;99.90;;;;;;4962212;28;90041;-33
2022/06/14 05:12:11;;;;;;;8.20;5.32;;;11.00;99.90;;;;;;4962165;28;90434;-34
2022/06/14 05:14:44;;;;;;;11.68;5.43;;;11.10;99.90;;;;;;4962005;28;89332;-34
2022/06/14 05:17:20;;;;;;;13.25;7.28;;;11.30;99.90;;;;;;4961484;28;89275;-34
2022/06/14 05:19:56;;;;;;;12.18;6.53;;;11.50;99.90;;;;;;4962495;28;90376;-33
2022/06/14 05:22:39;;;;;;;13.13;5.82;;;11.70;99.90;;;;;;4961748;28;89770;-33
2022/06/14 05:25:07;;;;;;;13.15;6.70;;;12.00;99.90;;;;;;4949668;28;88258;-34
2022/06/14 05:27:53;;;;;;;7.85;5.85;;;12.20;99.90;;;;;;4961979;28;90234;-35
2022/06/14 05:30:45;;;;;;;9.88;5.47;;;12.50;99.90;;;;;;4961774;28;88680;-35
2022/06/14 05:33:31;;;;;;;16.88;6.18;;;12.70;99.90;;;;;;4958336;28;89453;-32
2022/06/14 05:36:21;;;;;;;10.10;6.10;;;13.00;99.90;;;;;;4961782;28;90001;-35
2022/06/14 05:38:55;;;;;;;10.18;5.65;;;13.30;99.90;;;;;;4960836;28;90099;-37
2022/06/14 05:41:37;;;;;;;5.00;4.45;;;13.40;99.90;;;;;;4961426;28;90362;-33
2022/06/14 05:44:35;;;;;;;15.88;5.07;;;13.60;99.90;;;;;;4961825;28;90559;-35
2022/06/14 05:47:11;;;;;;;13.93;5.53;;;13.70;99.90;;;;;;4956783;28;89071;-34
2022/06/14 05:49:45;;;;;;;8.82;4.40;;;13.90;99.90;;;;;;4961075;28;90166;-34
2022/06/14 05:52:16;;;;;;;9.10;4.45;;;14.30;99.90;;;;;;4961816;28;89612;-34
2022/06/14 05:55:00;;;;;;;7.90;4.57;;;14.40;99.90;;;;;;4960419;28;89662;-37
2022/06/14 05:57:34;;;;;;;9.00;5.00;;;14.50;99.90;;;;;;4959443;28;88909;-34
2022/06/14 06:00:12;;;;;;;10.85;5.00;;;14.70;99.90;;;;;;4960205;28;90299;-36
2022/06/14 06:02:44;;;;;;;8.38;4.65;;;15.00;99.90;;;;;;4959946;28;90149;-34
2022/06/14 06:05:19;;;;;;;7.38;3.53;;;15.30;99.90;;;;;;4961435;28;89372;-34
2022/06/14 06:07:53;;;;;;;7.15;4.15;;;15.50;99.90;;;;;;4960809;28;89329;-33
2022/06/14 06:10:31;;;;;;;7.90;4.50;;;15.60;99.90;;;;;;4960961;28;90351;-37
2022/06/14 06:13:15;;;;;;;7.38;3.30;;;15.70;99.90;;;;;;4960852;28;88345;-34
2022/06/14 06:15:46;;;;;;;9.32;4.03;;;16.00;99.90;;;;;;4961139;28;89254;-35
2022/06/14 06:18:25;;;;;;;7.90;3.50;;;16.20;99.90;;;;;;4961155;28;89615;-35
2022/06/14 06:21:03;;;;;;;7.70;3.78;;;16.40;99.90;;;;;;4960863;28;90388;-35
2022/06/14 06:23:45;;;;;;;6.80;3.63;;;16.50;99.90;;;;;;4960319;28;90087;-37
2022/06/14 06:26:12;;;;;;;5.22;2.90;;;16.60;99.90;;;;;;4955529;28;89519;-36
2022/06/14 06:28:48;;;;;;;8.17;4.23;;;16.70;99.90;;;;;;4957605;28;87665;-34
2022/06/14 06:31:24;;;;;;;8.60;3.20;;;16.80;99.90;;;;;;4958543;28;90081;-35
2022/06/14 06:33:54;;;;;;;5.95;2.95;;;16.80;99.90;;;;;;4956487;28;90167;-35
2022/06/14 06:36:38;;;;;;;9.75;3.53;;;17.10;99.90;;;;;;4957593;28;90668;-35
2022/06/14 06:39:24;;;;;;;4.30;2.63;;;17.30;99.90;;;;;;4959261;28;88659;-34
2022/06/14 06:41:55;;;;;;;6.60;3.05;;;17.40;99.90;;;;;;4958396;28;89894;-34
2022/06/14 06:44:21;;;;;;;14.00;4.80;;;17.60;99.90;;;;;;4958567;28;89906;-36
2022/06/14 06:46:56;;;;;;;12.43;3.88;;;17.70;99.90;;;;;;4957544;28;89163;-39
2022/06/14 06:49:31;;;;;;;4.50;2.85;;;17.70;99.90;;;;;;4959120;28;89416;-37
2022/06/14 06:52:01;;;;;;;8.88;3.50;;;18.00;99.90;;;;;;4958724;28;90334;-34
2022/06/14 06:54:31;;;;;;;6.28;2.60;;;18.00;99.90;;;;;;4958667;28;89288;-33
2022/06/14 06:56:59;;;;;;;13.82;3.10;;;18.00;99.90;;;;;;4957671;28;89822;-36
2022/06/14 06:59:33;;;;;;;8.88;2.95;;;18.10;99.90;;;;;;4957392;28;89461;-35
2022/06/14 07:02:04;;;;;;;9.48;3.25;;;18.40;99.90;;;;;;4958750;28;91280;-33
2022/06/14 07:07:38;;;;;;;;;;;17.80;99.90;;;;;;4958403;28;89931;-38
2022/06/14 07:10:38;;;;;;;6.75;2.83;;;17.70;99.90;;;;;;4960225;28;89906;-35
2022/06/14 07:13:28;;;;;;;9.73;3.63;;;17.50;99.90;;;;;;4958639;28;89562;-34
2022/06/14 07:16:16;;;;;;;10.85;3.30;;;17.90;99.90;;;;;;4957905;28;89670;-38
2022/06/14 07:18:52;;;;;;;7.93;2.92;;;17.80;99.90;;;;;;4957600;28;89588;-35
2022/06/14 07:21:23;;;;;;;4.03;2.78;;;18.00;99.90;;;;;;4958605;28;89355;-34
2022/06/14 07:24:00;;;;;;;5.07;2.08;;;17.80;99.90;;;;;;4957826;28;89337;-37
2022/06/14 07:26:34;;;;;;;6.50;3.25;;;18.00;99.90;;;;;;4956508;28;90576;-37
2022/06/14 07:29:16;;;;;;;5.93;2.90;;;17.90;99.90;;;;;;4956378;28;89367;-37
2022/06/14 07:31:55;;;;;;;5.35;2.83;;;18.40;99.90;;;;;;4956651;28;89056;-37
2022/06/14 07:34:21;;;;;;;3.35;1.88;;;18.20;99.90;;;;;;4957163;28;90621;-36
2022/06/14 07:37:02;;;;;;;2.92;2.10;;;18.40;99.90;;;;;;4956447;28;89804;-34
2022/06/14 07:39:36;;;;;;;3.83;2.53;;;18.40;99.90;;;;;;4956847;28;88889;-37
2022/06/14 07:42:07;;;;;;;7.65;3.35;;;18.50;99.90;;;;;;4946255;28;89177;-36
2022/06/14 07:44:38;;;;;;;5.03;2.60;;;18.50;99.90;;;;;;4957339;28;90380;-37
2022/06/14 07:47:18;;;;;;;5.95;2.75;;;18.20;99.90;;;;;;4944464;28;90314;-32
2022/06/14 07:49:58;;;;;;;6.75;2.58;;;18.00;99.90;;;;;;4956080;28;89608;-34
2022/06/14 07:52:36;;;;;;;3.53;2.20;;;17.30;99.90;;;;;;4946441;28;90757;-34
2022/06/14 07:55:20;;;;;;;2.88;1.92;;;17.20;99.90;;;;;;4956072;28;90975;-36
2022/06/14 07:57:50;;;;;;;4.95;2.58;;;17.30;99.90;;;;;;4956856;28;89913;-35
2022/06/14 08:03:43;;;;;;;5.68;2.25;;;17.90;99.90;;;;;;4956736;28;89243;-34
2022/06/14 08:06:14;;;;;;;2.97;2.00;;;18.60;99.90;;;;;;4948243;28;90353;-37
2022/06/14 08:08:43;;;;;;;4.47;1.90;;;18.50;99.90;;;;;;4956912;28;89769;-35
2022/06/14 08:11:24;;;;;;;8.10;1.90;;;18.40;99.90;;;;;;4957254;28;89430;-35
2022/06/14 08:14:03;;;;;;;2.47;1.70;;;18.00;99.90;;;;;;4956324;28;87564;-34
2022/06/14 08:16:29;;;;;;;8.75;2.40;;;17.70;99.90;;;;;;4957160;28;90492;-35
2022/06/14 08:19:05;;;;;;;4.20;2.25;;;17.40;99.90;;;;;;4956266;28;90434;-36
2022/06/14 08:21:38;;;;;;;4.55;1.98;;;17.10;99.90;;;;;;4956568;28;89911;-35
2022/06/14 08:24:11;;;;;;;6.03;2.67;;;17.20;99.90;;;;;;4955390;28;88716;-37
2022/06/14 08:26:45;;;;;;;2.55;1.80;;;17.80;99.90;;;;;;4942667;28;90388;-36
2022/06/14 08:29:44;;;;;;;3.17;1.70;;;18.60;99.90;;;;;;4960007;28;89943;-35
2022/06/14 08:32:24;;;;;;;2.35;1.83;;;19.30;99.90;;;;;;4932845;28;90162;-37
2022/06/14 08:34:54;;;;;;;7.15;2.78;;;19.20;99.90;;;;;;4940308;28;89465;-35
2022/06/14 08:38:17;;;;;;;8.65;2.97;;;18.90;99.90;;;;;;4942935;28;90362;-36
2022/06/14 08:41:01;;;;;;;5.38;2.17;;;18.60;99.90;;;;;;4918722;28;89864;-34
2022/06/14 08:43:35;;;;;;;3.13;2.10;;;18.20;99.90;;;;;;4920747;28;90326;-38
2022/06/14 08:46:19;;;;;;;6.85;2.42;;;17.80;99.90;;;;;;4936712;28;88766;-38
2022/06/14 08:49:08;;;;;;;2.78;2.10;;;17.80;99.90;;;;;;4955572;28;90162;-37
2022/06/14 08:51:52;;;;;;;4.38;1.67;;;17.80;99.90;;;;;;4959837;28;89956;-37
2022/06/14 08:54:46;;;;;;;5.22;2.47;;;18.20;99.90;;;;;;4946944;28;89677;-36
2022/06/14 08:57:33;;;;;;;4.25;1.55;;;19.10;99.90;;;;;;4959432;28;87934;-35
2022/06/14 09:00:02;;;;;;;4.82;2.47;;;18.80;93.70;;;;;;4958848;28;90241;-38
2022/06/14 09:02:42;;;;;;;4.00;2.20;;;18.40;99.90;;;;;;4958285;28;90382;-37
2022/06/14 09:05:26;;;;;;;1.95;1.40;;;17.80;99.90;;;;;;4960199;28;90065;-39
2022/06/14 09:08:29;;;;;;;17.25;5.97;;;17.60;99.90;;;;;;4959506;28;88382;-36
2022/06/14 09:11:18;;;;;;;4.10;2.00;;;17.60;99.90;;;;;;4959277;28;90847;-36
2022/06/14 09:14:20;;;;;;;55.10;18.88;;;18.00;99.90;;;;;;4958399;28;91845;-36
2022/06/14 09:17:04;;;;;;;5.53;2.72;;;18.70;99.90;;;;;;4959266;28;89351;-38
2022/06/14 09:19:48;;;;;;;4.40;2.67;;;18.80;99.90;;;;;;4944122;28;89468;-34
2022/06/14 09:22:36;;;;;;;5.85;2.30;;;18.50;99.90;;;;;;4941978;28;91046;-37
2022/06/14 09:25:19;;;;;;;33.95;10.15;;;18.30;99.90;;;;;;4946905;28;90066;-38
2022/06/14 09:28:32;;;;;;;2.72;1.60;;;18.20;99.90;;;;;;4957990;28;89800;-38
2022/06/14 09:31:30;;;;;;;6.95;3.10;;;17.80;99.90;;;;;;4949934;28;88230;-36
2022/06/14 09:34:18;;;;;;;3.25;1.65;;;17.70;99.90;;;;;;4938328;28;91951;-34
2022/06/14 09:37:12;;;;;;;3.90;1.83;;;17.80;99.90;;;;;;4958392;28;89818;-37
2022/06/14 09:40:04;;;;;;;3.67;2.45;;;17.80;99.90;;;;;;4959189;28;89370;-37
2022/06/14 09:42:45;;;;;;;2.08;1.83;;;18.30;99.90;;;;;;4946835;28;89224;-37
2022/06/14 09:45:11;;;;;;;2.03;1.42;;;18.70;99.90;;;;;;4958378;28;90420;-37
2022/06/14 09:48:08;;;;;;;3.00;1.60;;;19.30;99.90;;;;;;4958689;28;90311;-35
2022/06/14 09:50:57;;;;;;;3.08;1.80;;;19.60;99.90;;;;;;4959157;28;89550;-37
2022/06/14 09:53:35;;;;;;;2.00;1.80;;;19.60;99.90;;;;;;4960173;28;89081;-39
2022/06/14 09:56:08;;;;;;;3.53;2.10;;;19.40;90.40;;;;;;4944114;28;90175;-36
2022/06/14 09:59:00;;;;;;;2.10;1.42;;;19.10;95.20;;;;;;4943664;28;90487;-37
2022/06/14 10:02:03;;;;;;;1.40;1.30;;;18.70;99.90;;;;;;4958611;28;90212;-36
2022/06/14 10:04:41;;;;;;;3.97;2.15;;;18.40;99.90;;;;;;4959120;28;88727;-39
2022/06/14 10:07:40;;;;;;;6.28;1.88;;;18.20;99.90;;;;;;4958922;28;90115;-35
2022/06/14 10:10:15;;;;;;;2.35;1.83;;;18.30;99.90;;;;;;4957806;28;90450;-39
2022/06/14 10:13:01;;;;;;;2.17;2.03;;;18.10;99.90;;;;;;4958466;28;91153;-37
2022/06/14 10:15:43;;;;;;;2.65;1.58;;;18.00;99.90;;;;;;4959051;28;88386;-34
2022/06/14 10:18:09;;;;;;;9.75;1.92;;;18.30;99.90;;;;;;4958678;28;90327;-38
2022/06/14 10:20:48;;;;;;;2.85;1.77;;;18.60;99.90;;;;;;4958255;28;89567;-38
2022/06/14 10:23:34;;;;;;;3.10;1.75;;;18.90;99.70;;;;;;4957819;28;89578;-37
2022/06/14 10:29:18;;;;;;;6.13;1.85;;;18.70;95.80;;;;;;4958012;28;90159;-37
2022/06/14 10:31:58;;;;;;;2.55;1.77;;;18.60;99.90;;;;;;4958388;28;89886;-35
2022/06/14 10:34:49;;;;;;;4.15;1.60;;;18.60;98.20;;;;;;4958190;28;89254;-36
2022/06/14 10:37:29;;;;;;;3.70;1.55;;;18.50;99.90;;;;;;4957745;28;89353;-37
2022/06/14 10:40:23;;;;;;;3.22;2.28;;;18.40;99.90;;;;;;4956733;28;89944;-35
2022/06/14 10:43:00;;;;;;;3.97;1.83;;;18.30;99.90;;;;;;4948078;28;90209;-37
2022/06/14 10:45:38;;;;;;;3.30;2.10;;;18.50;99.90;;;;;;4958429;28;89073;-38
2022/06/14 10:48:30;;;;;;;2.23;1.73;;;18.60;99.90;;;;;;4957296;28;89220;-40
2022/06/14 10:51:26;;;;;;;3.83;2.15;;;18.60;99.90;;;;;;4944851;28;90034;-36
2022/06/14 10:54:32;;;;;;;6.82;1.80;;;18.40;99.90;;;;;;4958369;28;89408;-35
2022/06/14 10:57:13;;;;;;;1.75;1.40;;;18.10;99.90;;;;;;4957546;28;89199;-37
2022/06/14 10:59:57;;;;;;;1.55;1.45;;;18.40;99.90;;;;;;4954386;28;88248;-37
2022/06/14 11:02:54;;;;;;;2.35;1.85;;;19.10;99.90;;;;;;4957906;28;89899;-34
2022/06/14 11:05:29;;;;;;;2.07;1.60;;;19.30;95.60;;;;;;4957337;28;90660;-36
2022/06/14 11:08:14;;;;;;;3.70;1.40;;;19.30;96.90;;;;;;4957014;28;90303;-35
2022/06/14 11:10:52;;;;;;;1.30;1.20;;;19.10;93.10;;;;;;4957791;28;88291;-34
2022/06/14 11:13:39;;;;;;;2.10;1.90;;;18.90;79.80;;;;;;4957652;28;90148;-38
2022/06/14 11:16:20;;;;;;;5.07;1.73;;;18.70;96.90;;;;;;4957669;28;91123;-37
2022/06/14 11:18:58;;;;;;;6.75;1.75;;;18.40;90.90;;;;;;4956765;28;89383;-38
2022/06/14 11:21:50;;;;;;;3.70;1.88;;;18.40;98.50;;;;;;4948743;28;88814;-36
2022/06/14 11:24:34;;;;;;;2.88;1.15;;;18.40;99.90;;;;;;4950852;28;91005;-35
2022/06/14 11:27:17;;;;;;;3.55;1.58;;;18.30;98.30;;;;;;4957512;28;89752;-35
2022/06/14 11:29:54;;;;;;;9.90;1.83;;;18.50;99.90;;;;;;4957406;28;89363;-39
2022/06/14 11:32:31;;;;;;;5.47;1.73;;;18.60;99.90;;;;;;4945109;28;89267;-38
2022/06/14 11:35:22;;;;;;;5.05;2.17;;;18.50;99.90;;;;;;4957366;28;91144;-35
2022/06/14 11:38:08;;;;;;;5.53;1.92;;;18.60;99.90;;;;;;4915629;28;90412;-35
2022/06/14 11:40:41;;;;;;;2.42;2.22;;;18.70;99.90;;;;;;4956227;28;90173;-37
2022/06/14 11:43:19;;;;;;;4.07;2.20;;;18.70;99.90;;;;;;4958299;28;89420;-36
2022/06/14 11:46:12;;;;;;;1.98;1.52;;;19.10;99.90;;;;;;4957110;28;90232;-35
2022/06/14 11:49:03;;;;;;;3.03;1.63;;;19.40;99.90;;;;;;4956730;28;89800;-39
2022/06/14 11:51:48;;;;;;;5.20;2.03;;;19.30;99.90;;;;;;4948834;28;88927;-39
2022/06/14 11:54:32;;;;;;;5.50;2.58;;;19.60;95.90;;;;;;4957736;28;89066;-35
2022/06/14 11:57:17;;;;;;;2.38;1.35;;;19.70;92.30;;;;;;4956378;28;90623;-36
2022/06/14 12:00:00;;;;;;;3.70;1.77;;;19.90;96.30;;;;;;4945186;28;90763;-35
2022/06/14 12:02:31;;;;;;;2.97;1.63;;;20.00;97.80;;;;;;4955994;28;90263;-36
2022/06/14 12:05:22;;;;;;;7.00;2.15;;;20.10;92.00;;;;;;4949158;28;88349;-35
2022/06/14 12:08:00;;;;;;;1.77;1.63;;;19.80;95.20;;;;;;4955704;28;90006;-36
2022/06/14 12:10:26;;;;;;;;;;;19.70;91.80;;;;;;4956915;28;89676;-37
2022/06/14 12:13:19;;;;;;;1.88;1.55;;;19.50;94.70;;;;;;4951094;28;89211;-38
2022/06/14 12:16:03;;;;;;;2.55;2.08;;;19.30;97.20;;;;;;4951698;28;89339;-35
2022/06/14 12:18:35;;;;;;;6.03;2.30;;;19.10;91.20;;;;;;4957168;28;90733;-35
2022/06/14 12:21:14;;;;;;;2.17;1.42;;;19.00;98.10;;;;;;4957775;28;89749;-35
2022/06/14 12:23:50;;;;;;;2.33;2.08;;;19.10;97.60;;;;;;4957123;28;89539;-36
2022/06/14 12:26:39;;;;;;;4.22;1.55;;;19.20;97.00;;;;;;4956269;28;90454;-38
2022/06/14 12:29:16;;;;;;;1.80;1.42;;;19.00;95.80;;;;;;4945431;28;90164;-36
2022/06/14 12:32:00;;;;;;;5.57;1.70;;;19.10;99.90;;;;;;4956128;28;89780;-36
2022/06/14 12:34:28;;;;;;;1.48;1.38;;;19.20;99.90;;;;;;4957033;28;89357;-35
2022/06/14 12:37:28;;;;;;;3.03;1.17;;;19.40;97.60;;;;;;4948123;28;90273;-37
2022/06/14 12:40:22;;;;;;;4.82;1.80;;;19.50;96.60;;;;;;4939083;28;90342;-35
2022/06/14 12:43:05;;;;;;;3.33;1.30;;;19.50;96.30;;;;;;4941174;28;90298;-37
2022/06/14 12:45:48;;;;;;;3.40;2.20;;;19.50;98.00;;;;;;4942447;28;89244;-34
2022/06/14 12:48:34;;;;;;;4.05;1.38;;;19.50;97.80;;;;;;4988325;28;88399;-38
2022/06/14 12:51:18;;;;;;;2.60;2.03;;;19.50;80.70;;;;;;4954283;28;90295;-36
2022/06/14 12:53:51;;;;;;;4.90;1.58;;;19.70;96.10;;;;;;4955848;28;90392;-39
2022/06/14 12:56:22;;;;;;;3.67;2.22;;;19.80;90.70;;;;;;4956268;28;90234;-35
2022/06/14 13:01:42;;;;;;;2.17;1.35;;;19.40;89.80;;;;;;4974379;28;88442;-37
2022/06/14 13:04:27;;;;;;;7.90;2.50;;;19.40;86.20;;;;;;4976484;28;90342;-35
2022/06/14 13:07:16;;;;;;;1.95;1.55;;;19.20;87.50;;;;;;4975514;28;90258;-38
2022/06/14 13:09:51;;;;;;;5.07;1.40;;;19.10;81.90;;;;;;4976165;28;89555;-37
2022/06/14 13:12:31;;;;;;;2.05;1.50;;;19.00;82.20;;;;;;4978453;28;89967;-36
2022/06/14 13:15:35;;;;;;;3.95;1.92;;;19.20;81.50;;;;;;4979449;28;89659;-36
2022/06/14 13:18:10;;;;;;;3.08;1.55;;;19.50;94.20;;;;;;4978646;28;89602;-38
2022/06/14 13:20:47;;;;;;;153.82;21.38;;;19.70;91.90;;;;;;4979196;28;88810;-39
2022/06/14 13:23:24;;;;;;;1.92;1.63;;;20.00;90.40;;;;;;4979216;28;91328;-36
2022/06/14 13:26:30;;;;;;;1.70;1.50;;;20.00;86.90;;;;;;4978900;28;89917;-37
2022/06/14 13:29:26;;;;;;;2.35;1.40;;;20.00;87.90;;;;;;4966503;28;89430;-37
2022/06/14 13:32:12;;;;;;;2.17;1.35;;;20.10;75.40;;;;;;4979692;28;88017;-37
2022/06/14 13:34:38;;;;;;;1.50;1.25;;;19.90;73.10;;;;;;4979018;28;90282;-35
2022/06/14 13:37:22;;;;;;;2.25;1.85;;;20.00;83.10;;;;;;4978940;28;89600;-37
2022/06/14 13:39:50;;;;;;;1.83;1.55;;;20.30;92.10;;;;;;4979454;28;89490;-36
2022/06/14 13:42:20;;;;;;;;;;;20.40;89.60;;;;;;4979699;28;88975;-37
2022/06/14 13:44:51;;;;;;;1.23;1.13;;;20.40;90.70;;;;;;4980269;28;89206;-38
2022/06/14 13:47:43;;;;;;;5.60;1.92;;;20.10;89.70;;;;;;4978178;28;91076;-37
2022/06/14 13:50:22;;;;;;;3.25;1.80;;;20.10;93.30;;;;;;4979514;28;90714;-35
2022/06/14 13:53:00;;;;;;;8.30;2.35;;;20.00;99.80;;;;;;4967032;28;88927;-38
2022/06/14 13:55:46;;;;;;;4.43;1.65;;;20.00;82.70;;;;;;4966961;28;91775;-39
2022/06/14 13:58:20;;;;;;;3.38;1.92;;;19.90;94.00;;;;;;4969921;28;91575;-36
2022/06/14 14:01:21;;;;;;;3.75;1.85;;;19.70;92.50;;;;;;4978569;28;90096;-35
2022/06/14 14:03:54;;;;;;;5.32;1.52;;;19.70;99.40;;;;;;4977078;28;89423;-40
2022/06/14 14:06:45;;;;;;;1.85;1.20;;;19.60;99.90;;;;;;4978299;28;90208;-35
2022/06/14 14:09:24;;;;;;;2.83;1.98;;;19.40;90.20;;;;;;4978631;28;90738;-34